Time;durP1;ratioP1;P1;durP2;ratioP2;P2;SDS_P1;SDS_P2;PMS_P1;PMS_P2;Temp;Humidity;BMP_temperature;BMP_pressure;BME280_temperature;BME280_humidity;BME280_pressure;Samples;Min_cycle;Max_cycle;Signal;HPM_P1;HPM_P2
2022/07/13 00:00:42;;;;;;;1.60;1.50;;;;;;;11.75;100.00;97241.16;10414695;28;20246;-71
2022/07/13 00:05:43;;;;;;;1.38;1.17;;;;;;;11.78;100.00;97248.75;10413771;28;20719;-70
2022/07/13 00:10:44;;;;;;;2.05;1.40;;;;;;;11.69;100.00;97246.22;10413978;28;20648;-71
2022/07/13 00:15:44;;;;;;;2.92;1.60;;;;;;;11.67;100.00;97246.34;10413331;28;20612;-71
2022/07/13 00:20:45;;;;;;;2.35;1.20;;;;;;;11.56;100.00;97236.91;10413977;28;20189;-71
2022/07/13 00:25:45;;;;;;;1.70;1.50;;;;;;;11.63;100.00;97238.94;10413267;28;20189;-70
2022/07/13 00:30:45;;;;;;;7.07;1.67;;;;;;;11.53;100.00;97239.84;10413619;28;20204;-71
2022/07/13 00:35:46;;;;;;;2.27;1.73;;;;;;;11.47;100.00;97236.97;10395067;28;20642;-70
2022/07/13 00:40:46;;;;;;;1.70;1.30;;;;;;;11.47;100.00;97235.19;10395726;28;20192;-71
2022/07/13 00:45:47;;;;;;;2.70;1.88;;;;;;;11.45;100.00;97231.06;10412404;28;20913;-71
2022/07/13 00:50:47;;;;;;;1.60;1.50;;;;;;;11.46;100.00;97228.28;10412327;28;20275;-70
2022/07/13 00:55:48;;;;;;;1.83;1.50;;;;;;;11.46;100.00;97217.78;10378340;28;20216;-71
2022/07/13 01:00:49;;;;;;;1.33;1.10;;;;;;;11.43;100.00;97218.91;10392397;28;20181;-70
2022/07/13 01:05:49;;;;;;;1.93;1.60;;;;;;;11.41;100.00;97220.84;10369200;28;20725;-70
2022/07/13 01:10:50;;;;;;;4.20;1.70;;;;;;;11.47;100.00;97208.94;10369376;28;20561;-71
2022/07/13 01:15:50;;;;;;;2.93;1.60;;;;;;;11.43;100.00;97213.66;10370141;28;20221;-70
2022/07/13 01:20:51;;;;;;;1.52;1.33;;;;;;;11.40;100.00;97211.31;10369387;28;20676;-70
2022/07/13 01:25:56;;;;;;;3.15;1.48;;;;;;;11.40;100.00;97208.69;10368570;28;20223;-70
2022/07/13 01:30:56;;;;;;;1.60;1.50;;;;;;;11.39;100.00;97212.31;10370227;28;20185;-71
2022/07/13 01:35:56;;;;;;;2.53;1.50;;;;;;;11.34;100.00;97211.91;10369383;28;20591;-70
2022/07/13 01:40:57;;;;;;;4.28;1.70;;;;;;;11.33;100.00;97212.06;10389394;28;20189;-70
2022/07/13 01:45:57;;;;;;;1.97;1.87;;;;;;;11.40;100.00;97206.06;10407146;28;20220;-70
2022/07/13 01:50:58;;;;;;;4.13;1.90;;;;;;;11.32;100.00;97207.81;10383446;28;20209;-70
2022/07/13 01:55:58;;;;;;;2.63;1.70;;;;;;;11.34;100.00;97211.91;10369414;28;20315;-71
2022/07/13 02:00:59;;;;;;;1.80;1.70;;;;;;;11.42;100.00;97206.78;10367359;28;20197;-70
2022/07/13 02:06:00;;;;;;;2.67;1.87;;;;;;;11.43;100.00;97191.84;10401439;28;20239;-70
2022/07/13 02:11:03;;;;;;;4.33;1.60;;;;;;;11.56;100.00;97192.31;10391531;28;20600;-70
2022/07/13 02:16:03;;;;;;;1.60;1.50;;;;;;;11.64;100.00;97177.56;10408026;28;20220;-70
2022/07/13 02:21:05;;;;;;;1.17;1.17;;;;;;;11.71;100.00;97166.31;10391911;28;20194;-70
2022/07/13 02:26:05;;;;;;;1.30;1.20;;;;;;;11.72;100.00;97143.53;10408572;28;20180;-70
2022/07/13 02:31:05;;;;;;;2.30;1.40;;;;;;;11.93;100.00;97143.22;10391238;28;20242;-70
2022/07/13 02:36:06;;;;;;;4.53;1.65;;;;;;;12.16;100.00;97143.53;10408062;28;20225;-70
2022/07/13 02:41:06;;;;;;;1.98;1.50;;;;;;;12.37;100.00;97139.69;10391392;28;20199;-70
2022/07/13 02:46:06;;;;;;;1.30;1.20;;;;;;;12.16;100.00;97153.19;10408222;28;20176;-71
2022/07/13 02:51:07;;;;;;;1.60;1.50;;;;;;;12.34;100.00;97151.31;10390626;28;20605;-70
2022/07/13 02:56:08;;;;;;;5.38;2.08;;;;;;;12.45;100.00;97145.81;10407534;28;20224;-71
2022/07/13 03:01:08;;;;;;;2.15;1.58;;;;;;;12.45;100.00;97139.72;10390384;28;20185;-70
2022/07/13 03:06:09;;;;;;;1.85;1.40;;;;;;;12.46;100.00;97142.19;10384617;28;20697;-70
2022/07/13 03:11:10;;;;;;;3.97;1.77;;;;;;;12.43;100.00;97142.50;10383051;28;20189;-70
2022/07/13 03:16:11;;;;;;;1.60;1.50;;;;;;;12.54;100.00;97130.06;10382797;28;20227;-69
2022/07/13 03:21:12;;;;;;;1.52;1.30;;;;;;;12.64;100.00;97128.94;10383457;28;20214;-70
2022/07/13 03:26:13;;;;;;;3.70;1.70;;;;;;;12.78;100.00;97131.97;10371549;28;20186;-71
2022/07/13 03:31:14;;;;;;;2.55;1.52;;;;;;;12.95;100.00;97119.66;10391550;28;20287;-71
2022/07/13 03:36:15;;;;;;;2.45;1.60;;;;;;;12.94;100.00;97133.78;10389416;28;20718;-71
2022/07/13 03:41:15;;;;;;;2.78;1.60;;;;;;;12.99;100.00;97118.38;10389541;28;20196;-71
2022/07/13 03:46:16;;;;;;;1.90;1.70;;;;;;;13.15;100.00;97128.09;10389629;28;20691;-71
2022/07/13 03:51:16;;;;;;;7.15;1.60;;;;;;;13.26;100.00;97125.16;10387921;28;20193;-71
2022/07/13 03:56:17;;;;;;;1.65;1.38;;;;;;;13.35;100.00;97131.25;10407040;28;20220;-71
2022/07/13 04:01:19;;;;;;;3.25;1.80;;;;;;;13.44;100.00;97124.19;10390520;28;20568;-71
2022/07/13 04:06:20;;;;;;;2.10;1.90;;;;;;;13.46;100.00;97130.97;10395941;28;20228;-71
2022/07/13 04:11:20;;;;;;;2.50;1.90;;;;;;;13.47;100.00;97124.69;10396659;28;20189;-71
2022/07/13 04:16:21;;;;;;;1.67;1.58;;;;;;;13.58;100.00;97114.81;10395745;28;20224;-71
2022/07/13 04:21:22;;;;;;;5.20;1.55;;;;;;;13.65;100.00;97115.81;10414104;28;20184;-71
2022/07/13 04:26:24;;;;;;;2.15;1.52;;;;;;;13.81;100.00;97118.41;10379351;28;20187;-71
2022/07/13 04:31:25;;;;;;;2.38;1.70;;;;;;;13.84;100.00;97109.34;10396178;28;20192;-71
2022/07/13 04:36:26;;;;;;;1.90;1.60;;;;;;;13.91;100.00;97110.34;10378031;28;20288;-71
2022/07/13 04:41:27;;;;;;;3.95;1.80;;;;;;;14.03;100.00;97102.91;10395496;28;20299;-71
2022/07/13 04:46:27;;;;;;;3.22;1.88;;;;;;;14.07;100.00;97089.25;10412854;28;20185;-71
2022/07/13 04:51:31;;;;;;;4.85;2.17;;;;;;;14.14;100.00;97094.63;10394827;28;20708;-71
2022/07/13 04:56:31;;;;;;;3.38;1.80;;;;;;;14.23;100.00;97080.44;10394343;28;20652;-71
2022/07/13 05:01:33;;;;;;;4.60;1.90;;;;;;;14.33;100.00;97087.31;10394671;28;20273;-71
2022/07/13 05:06:37;;;;;;;4.22;1.70;;;;;;;14.63;99.48;97088.38;10393589;28;20712;-71
2022/07/13 05:11:39;;;;;;;7.35;2.13;;;;;;;14.55;100.00;97098.94;10394389;28;20189;-71
2022/07/13 05:16:40;;;;;;;5.30;2.13;;;;;;;14.65;100.00;97106.66;10393718;28;20616;-71
2022/07/13 05:21:42;;;;;;;4.32;2.08;;;;;;;14.74;100.00;97114.34;10393712;28;20246;-71
2022/07/13 05:26:43;;;;;;;3.97;1.90;;;;;;;14.87;100.00;97113.81;10393535;28;20176;-71
2022/07/13 05:31:44;;;;;;;3.13;1.95;;;;;;;14.82;100.00;97108.22;10393558;28;20200;-71
2022/07/13 05:36:45;;;;;;;2.10;1.80;;;;;;;15.19;98.69;97111.97;10392727;28;20243;-72
2022/07/13 05:41:46;;;;;;;4.47;1.60;;;;;;;15.42;99.15;97108.47;10392449;28;20193;-71
2022/07/13 05:46:48;;;;;;;3.25;1.70;;;;;;;15.69;97.57;97120.28;10394771;28;20185;-71
2022/07/13 05:51:48;;;;;;;2.35;1.85;;;;;;;15.87;96.70;97118.19;10411520;28;20185;-71
2022/07/13 05:56:49;;;;;;;4.45;1.85;;;;;;;16.33;92.60;97101.34;10394054;28;20870;-72
2022/07/13 06:01:49;;;;;;;3.53;1.70;;;;;;;16.76;89.78;97101.47;10411382;28;20665;-71
2022/07/13 06:06:49;;;;;;;3.00;1.60;;;;;;;17.29;83.85;97058.88;10410655;28;20723;-70
2022/07/13 06:11:50;;;;;;;2.47;1.70;;;;;;;17.62;81.86;97052.19;10411571;28;20605;-70
2022/07/13 06:16:50;;;;;;;4.13;1.67;;;;;;;18.08;80.18;97051.69;10410820;28;20691;-70
2022/07/13 06:21:51;;;;;;;3.85;1.30;;;;;;;18.38;77.24;97029.38;10410759;28;20192;-70
2022/07/13 06:26:51;;;;;;;2.35;1.48;;;;;;;18.62;76.47;97041.31;10410593;28;20238;-70
2022/07/13 06:31:51;;;;;;;1.50;1.40;;;;;;;18.92;75.97;97019.78;10410380;28;20588;-70
2022/07/13 06:36:54;;;;;;;1.50;1.40;;;;;;;19.05;73.18;96987.91;10409815;28;20336;-70
2022/07/13 06:41:55;;;;;;;3.47;1.50;;;;;;;19.40;74.31;97020.44;10410301;28;20189;-72
2022/07/13 06:46:59;;;;;;;5.18;1.42;;;;;;;19.60;74.61;97025.72;10409734;28;20271;-70
2022/07/13 06:51:59;;;;;;;2.42;1.50;;;;;;;19.85;71.98;96998.50;10409836;28;20185;-70
2022/07/13 06:56:59;;;;;;;3.10;1.90;;;;;;;20.29;70.74;96988.13;10409845;28;20220;-70
2022/07/13 07:02:00;;;;;;;1.83;1.48;;;;;;;19.72;70.10;96987.88;10409174;28;20203;-71
2022/07/13 07:07:01;;;;;;;6.75;1.52;;;;;;;20.06;68.09;96967.34;10409882;28;20208;-72
2022/07/13 07:12:01;;;;;;;2.40;1.17;;;;;;;20.31;69.14;96992.22;10409382;28;20192;-72
2022/07/13 07:17:02;;;;;;;2.13;1.33;;;;;;;21.23;63.42;96903.13;10409787;28;20220;-72
2022/07/13 07:22:02;;;;;;;1.80;1.40;;;;;;;21.15;62.99;96896.22;10409346;28;20339;-72
2022/07/13 07:27:05;;;;;;;1.65;1.45;;;;;;;21.39;62.85;96909.72;10409440;28;20653;-72
2022/07/13 07:32:05;;;;;;;1.30;1.20;;;;;;;21.12;62.65;96899.34;10408278;28;20199;-72
2022/07/13 07:37:06;;;;;;;4.10;1.88;;;;;;;21.33;61.44;96889.28;10407806;28;20243;-72
2022/07/13 07:42:06;;;;;;;1.80;1.38;;;;;;;21.02;61.02;96878.50;10407622;28;20189;-72
2022/07/13 07:47:06;;;;;;;1.73;1.33;;;;;;;20.88;60.63;96876.19;10406744;28;20243;-72
2022/07/13 07:52:07;;;;;;;3.08;1.88;;;;;;;21.30;60.08;96879.06;10407437;28;20202;-72
2022/07/13 07:57:07;;;;;;;7.78;1.60;;;;;;;21.41;60.88;96880.19;10407039;28;20721;-72
2022/07/13 08:02:08;;;;;;;1.20;1.10;;;;;;;23.27;56.65;96836.69;10406787;28;20284;-73
2022/07/13 08:07:09;;;;;;;1.45;1.20;;;;;;;23.47;53.45;96757.97;10407115;28;20212;-72
2022/07/13 08:12:09;;;;;;;1.48;1.15;;;;;;;23.88;51.29;96733.88;10410075;28;20192;-72
2022/07/13 08:17:10;;;;;;;1.00;1.00;;;;;;;22.90;53.14;96739.94;10414056;28;20217;-72
2022/07/13 08:22:10;;;;;;;3.25;1.05;;;;;;;22.80;54.58;96791.28;10413640;28;20204;-72
2022/07/13 08:27:10;;;;;;;8.48;1.30;;;;;;;22.73;55.53;96802.06;10413993;28;20180;-72
2022/07/13 08:32:11;;;;;;;1.23;1.10;;;;;;;23.42;54.77;96793.44;10413273;28;20275;-72
2022/07/13 08:42:39;;;;;;;0.90;0.90;;;;;;;23.90;52.17;96737.09;10412547;28;20657;-72
2022/07/13 08:47:44;;;;;;;1.83;1.00;;;;;;;24.62;50.61;96732.91;10412454;28;20189;-72
2022/07/13 08:52:45;;;;;;;3.90;0.98;;;;;;;25.69;47.99;96687.84;10412578;28;20279;-72
2022/07/13 08:57:45;;;;;;;5.80;0.90;;;;;;;25.75;49.16;96723.59;10412395;28;20193;-72
2022/07/13 09:02:48;;;;;;;1.77;0.70;;;;;;;26.20;45.55;96647.19;10412460;28;20286;-72
2022/07/13 09:08:06;;;;;;;2.70;0.70;;;;;;;25.42;48.25;96698.56;10411985;28;20607;-73
2022/07/13 09:13:07;;;;;;;1.80;1.00;;;;;;;26.17;46.80;96686.13;10411682;28;20232;-72
2022/07/13 09:18:17;;;;;;;0.80;0.80;;;;;;;27.21;44.49;96664.13;10411829;28;20258;-70
2022/07/13 09:23:29;;;;;;;1.85;0.98;;;;;;;27.61;44.38;96672.56;10393481;28;20200;-70
2022/07/13 09:28:40;;;;;;;2.17;0.85;;;;;;;27.91;43.18;96639.47;10393608;28;20196;-71
2022/07/13 09:33:45;;;;;;;1.25;0.90;;;;;;;26.57;43.13;96603.38;10411163;28;20220;-71
2022/07/13 09:38:47;;;;;;;5.57;0.80;;;;;;;26.55;45.05;96663.81;10410985;28;20196;-71
2022/07/13 09:49:17;;;;;;;0.90;0.55;;;;;;;29.55;36.83;96532.06;10410472;28;20545;-71
2022/07/13 09:54:17;;;;;;;1.48;0.80;;;;;;;28.97;37.92;96546.22;10410259;28;20224;-71
2022/07/13 09:59:18;;;;;;;3.07;0.63;;;;;;;28.63;38.56;96569.31;10392499;28;20276;-71
2022/07/13 10:04:19;;;;;;;1.60;0.77;;;;;;;26.93;38.55;96485.22;10391594;28;20470;-70
2022/07/13 10:09:22;;;;;;;4.60;0.77;;;;;;;27.36;38.68;96525.38;10392712;28;20209;-71
2022/07/13 10:14:23;;;;;;;0.60;0.60;;;;;;;27.66;36.21;96465.34;10408841;28;20261;-71
2022/07/13 10:19:23;;;;;;;0.63;0.55;;;;;;;28.75;33.78;96425.31;10392019;28;20224;-71
2022/07/13 10:24:24;;;;;;;0.93;0.70;;;;;;;27.68;38.41;96551.19;10409014;28;20594;-71
2022/07/13 10:29:26;;;;;;;0.60;0.55;;;;;;;29.22;37.06;96555.25;10409175;28;20779;-72
2022/07/13 10:34:51;;;;;;;2.95;0.65;;;;;;;29.53;35.27;96505.34;10408429;28;20696;-71
2022/07/13 10:40:10;;;;;;;2.05;0.70;;;;;;;30.35;34.66;96525.34;10408757;28;20192;-71
2022/07/13 10:45:38;;;;;;;0.90;0.77;;;;;;;32.58;33.59;96580.41;10408753;28;20200;-71
2022/07/13 10:50:47;;;;;;;0.70;0.70;;;;;;;32.48;32.27;96532.56;10408445;28;20228;-72
2022/07/13 10:55:51;;;;;;;1.73;0.90;;;;;;;31.83;32.07;96497.19;10408288;28;20282;-71
2022/07/13 11:00:51;;;;;;;4.68;1.10;;;;;;;31.33;32.38;96482.63;10408995;28;20707;-71
2022/07/13 11:06:08;;;;;;;1.47;0.90;;;;;;;31.47;32.46;96494.28;10407920;28;20326;-73
2022/07/13 11:11:11;;;;;;;5.05;1.00;;;;;;;27.27;39.14;96561.91;10408275;28;20449;-72
2022/07/13 11:16:12;;;;;;;0.90;0.90;;;;;;;29.18;37.60;96580.06;10400799;28;20257;-72
2022/07/13 11:21:15;;;;;;;2.20;0.95;;;;;;;28.99;37.78;96571.03;10367456;28;20674;-72
2022/07/13 11:26:52;;;;;;;0.70;0.68;;;;;;;29.34;35.59;96507.13;10366613;28;20193;-71
2022/07/13 11:31:56;;;;;;;2.58;0.80;;;;;;;28.84;36.76;96536.88;10367328;28;20204;-72
2022/07/13 11:36:59;;;;;;;1.52;0.70;;;;;;;30.90;34.40;96551.16;10366689;28;20225;-72
2022/07/13 11:42:01;;;;;;;4.05;1.20;;;;;;;28.85;36.70;96510.69;10365949;28;20197;-72
2022/07/13 11:47:07;;;;;;;2.92;0.70;;;;;;;29.47;37.71;96560.47;10371714;28;20674;-72
2022/07/13 11:52:07;;;;;;;0.73;0.73;;;;;;;28.25;35.80;96444.16;10374249;28;20221;-71
2022/07/13 11:57:07;;;;;;;0.63;0.47;;;;;;;31.18;32.65;96470.16;10356561;28;20221;-72
2022/07/13 12:02:09;;;;;;;1.33;0.73;;;;;;;31.04;33.05;96457.38;10373905;28;20193;-72
2022/07/13 12:07:16;;;;;;;10.05;1.83;;;;;;;29.12;35.68;96467.91;10373468;28;20472;-71
2022/07/13 12:12:30;;;;;;;3.83;0.60;;;;;;;28.85;35.83;96427.13;10373580;28;20201;-72
2022/07/13 12:17:48;;;;;;;3.50;0.70;;;;;;;29.26;36.87;96483.47;10355921;28;20697;-72
2022/07/13 12:22:56;;;;;;;0.93;0.60;;;;;;;31.27;31.26;96382.59;10372964;28;20241;-72
2022/07/13 12:28:00;;;;;;;0.60;0.50;;;;;;;30.36;32.35;96381.00;10355776;28;20185;-72
2022/07/13 12:33:02;;;;;;;6.53;0.75;;;;;;;29.08;34.98;96423.72;10355452;28;20221;-72
2022/07/13 12:38:07;;;;;;;2.92;0.70;;;;;;;29.12;35.17;96450.91;10355409;28;20194;-72
2022/07/13 12:43:30;;;;;;;0.82;0.60;;;;;;;30.43;35.38;96523.94;10372417;28;20559;-72
2022/07/13 12:48:32;;;;;;;3.08;0.80;;;;;;;30.48;35.40;96526.56;10372790;28;20204;-71
2022/07/13 12:53:48;;;;;;;2.30;0.63;;;;;;;28.75;35.71;96450.38;10371573;28;20217;-72
2022/07/13 12:58:50;;;;;;;8.75;1.25;;;;;;;29.55;36.85;96521.28;10371572;28;20196;-72
2022/07/13 13:03:50;;;;;;;2.25;0.60;;;;;;;28.17;36.22;96453.63;10370656;28;20682;-72
2022/07/13 13:09:01;;;;;;;4.60;0.80;;;;;;;28.63;34.63;96406.78;10371734;28;20303;-72
2022/07/13 13:14:02;;;;;;;1.17;0.40;;;;;;;29.70;30.78;96329.44;10370904;28;20505;-72
2022/07/13 13:19:03;;;;;;;2.58;0.70;;;;;;;29.60;32.40;96380.03;10371387;28;20197;-72
2022/07/13 13:24:06;;;;;;;1.33;0.80;;;;;;;31.17;31.96;96434.16;10353248;28;20661;-72
2022/07/13 13:34:26;;;;;;;3.03;0.70;;;;;;;31.50;31.01;96385.38;10355340;28;20221;-72
2022/07/13 13:39:26;;;;;;;3.38;0.80;;;;;;;29.48;32.80;96343.47;10370611;28;20188;-72
2022/07/13 13:44:26;;;;;;;2.30;0.50;;;;;;;30.21;30.92;96330.66;10352312;28;20189;-72
2022/07/13 13:49:27;;;;;;;0.50;0.50;;;;;;;30.34;30.73;96302.13;10370348;28;20774;-71
2022/07/13 13:54:27;;;;;;;7.17;0.90;;;;;;;28.61;30.59;96220.28;10369836;28;20717;-72
2022/07/13 13:59:27;;;;;;;2.05;0.60;;;;;;;29.61;29.45;96222.38;10369687;28;20960;-71
2022/07/13 14:04:29;;;;;;;2.43;0.73;;;;;;;30.88;29.67;96302.59;10369193;28;20362;-72
2022/07/13 14:09:29;;;;;;;1.15;0.77;;;;;;;30.12;30.13;96272.19;10369110;28;20456;-72
2022/07/13 14:14:30;;;;;;;1.70;0.77;;;;;;;31.00;29.46;96282.41;10368608;28;20240;-72
2022/07/13 14:19:30;;;;;;;3.40;0.80;;;;;;;32.55;28.09;96307.88;10368976;28;20275;-72
2022/07/13 14:24:30;;;;;;;2.60;0.77;;;;;;;29.64;31.84;96302.78;10368793;28;20437;-71
2022/07/13 14:29:31;;;;;;;0.60;0.60;;;;;;;29.94;31.73;96325.94;10368778;28;20185;-71
2022/07/13 14:34:31;;;;;;;1.30;0.68;;;;;;;29.61;32.76;96331.16;10367941;28;20507;-71
2022/07/13 14:39:32;;;;;;;2.50;0.87;;;;;;;29.12;32.48;96286.38;10368823;28;20189;-72
2022/07/13 14:44:32;;;;;;;1.70;0.80;;;;;;;29.43;32.69;96316.53;10367881;28;20440;-71
2022/07/13 14:49:32;;;;;;;1.83;0.67;;;;;;;28.01;35.23;96334.41;10368206;28;20443;-71
2022/07/13 14:54:33;;;;;;;1.90;0.82;;;;;;;29.23;34.99;96385.00;10367765;28;21097;-71
2022/07/13 14:59:33;;;;;;;0.80;0.57;;;;;;;29.44;33.03;96323.53;10367911;28;20197;-72
2022/07/13 15:04:37;;;;;;;5.97;0.73;;;;;;;30.09;32.00;96276.25;10367177;28;20480;-72
2022/07/13 15:09:37;;;;;;;7.80;0.82;;;;;;;32.13;30.74;96340.56;10368196;28;20216;-72
2022/07/13 15:14:39;;;;;;;5.10;0.97;;;;;;;31.56;29.59;96242.63;10367148;28;20220;-71
2022/07/13 15:19:39;;;;;;;2.83;0.90;;;;;;;34.50;28.28;96344.41;10369087;28;20784;-71
2022/07/13 15:24:42;;;;;;;1.13;1.03;;;;;;;33.07;29.88;96313.63;10375424;28;20216;-71
2022/07/13 15:29:42;;;;;;;3.25;0.88;;;;;;;31.11;31.08;96264.88;10375439;28;20443;-72
2022/07/13 15:34:42;;;;;;;2.20;0.97;;;;;;;31.80;30.61;96300.06;10375213;28;20559;-71
2022/07/13 15:39:43;;;;;;;2.60;0.80;;;;;;;30.29;32.62;96293.28;10375229;28;20806;-71
2022/07/13 15:44:43;;;;;;;4.93;0.80;;;;;;;31.82;31.49;96311.41;10374632;28;20470;-71
2022/07/13 15:49:43;;;;;;;2.27;0.90;;;;;;;32.96;29.61;96281.66;10374890;28;20437;-71
2022/07/13 15:54:44;;;;;;;7.37;0.90;;;;;;;32.88;28.95;96247.91;10374192;28;20491;-72
2022/07/13 15:59:44;;;;;;;3.47;0.90;;;;;;;31.46;33.00;96324.84;10373957;28;20531;-72
2022/07/13 16:04:44;;;;;;;9.00;0.90;;;;;;;29.94;33.60;96271.91;10373852;28;20471;-71
2022/07/13 16:09:45;;;;;;;0.97;0.80;;;;;;;28.80;34.72;96266.19;10373769;28;20340;-71
2022/07/13 16:14:45;;;;;;;0.87;0.80;;;;;;;29.26;34.80;96305.41;10382861;28;20482;-71
2022/07/13 16:19:46;;;;;;;1.37;1.00;;;;;;;28.10;36.52;96295.03;10414606;28;20464;-71
2022/07/13 16:24:46;;;;;;;1.00;0.90;;;;;;;28.69;35.70;96300.53;10413968;28;20522;-71
2022/07/13 16:29:46;;;;;;;5.20;1.60;;;;;;;28.95;35.69;96309.19;10414605;28;20989;-71
2022/07/13 16:34:47;;;;;;;4.67;0.90;;;;;;;29.29;35.51;96321.81;10412132;28;20274;-71
2022/07/13 16:39:47;;;;;;;1.20;1.10;;;;;;;30.10;34.03;96313.00;10413784;28;20459;-71
2022/07/13 16:44:47;;;;;;;8.57;2.97;;;;;;;29.58;34.91;96301.25;10412358;28;20497;-71
2022/07/13 16:49:48;;;;;;;3.63;2.10;;;;;;;29.04;34.19;96292.41;10411712;28;20443;-71
2022/07/13 16:54:48;;;;;;;9.32;6.13;;;;;;;27.94;36.79;96296.16;10410727;28;20513;-71
2022/07/13 16:59:49;;;;;;;8.15;3.50;;;;;;;28.12;36.94;96313.59;10410793;28;20192;-71
2022/07/13 17:04:51;;;;;;;4.25;1.15;;;;;;;27.66;37.29;96300.38;10410079;28;20768;-71
2022/07/13 17:09:51;;;;;;;3.35;1.45;;;;;;;27.80;37.32;96324.78;10410240;28;20242;-71
2022/07/13 17:14:52;;;;;;;1.95;1.20;;;;;;;27.61;38.50;96349.59;10409965;28;20228;-71
2022/07/13 17:19:52;;;;;;;3.73;1.10;;;;;;;27.19;38.46;96343.50;10410446;28;20197;-71
2022/07/13 17:24:56;;;;;;;1.30;1.20;;;;;;;26.86;39.90;96361.03;10410176;28;20430;-71
2022/07/13 17:29:57;;;;;;;5.80;1.30;;;;;;;27.01;39.40;96370.97;10409583;28;20203;-71
2022/07/13 17:34:57;;;;;;;1.95;1.27;;;;;;;27.17;39.78;96394.09;10409390;28;20590;-70
2022/07/13 17:39:57;;;;;;;1.27;1.17;;;;;;;27.07;39.53;96388.72;10408225;28;20204;-71
2022/07/13 17:44:58;;;;;;;1.40;1.20;;;;;;;26.45;41.35;96409.38;10408755;28;20537;-71
2022/07/13 17:49:58;;;;;;;1.60;1.20;;;;;;;26.33;41.87;96426.50;10409188;28;20483;-71
2022/07/13 17:54:58;;;;;;;1.37;1.23;;;;;;;25.81;43.41;96441.59;10390596;28;20269;-71
2022/07/13 17:59:59;;;;;;;2.53;1.10;;;;;;;25.87;44.05;96480.00;10410133;28;20542;-71
2022/07/13 18:04:59;;;;;;;3.03;1.33;;;;;;;25.91;42.91;96448.91;10409005;28;20307;-70
2022/07/13 18:10:01;;;;;;;5.53;1.17;;;;;;;25.88;42.21;96425.25;10409685;28;20547;-71
2022/07/13 18:15:01;;;;;;;1.35;1.00;;;;;;;25.22;43.46;96425.63;10409110;28;20521;-71
2022/07/13 18:20:03;;;;;;;2.00;0.95;;;;;;;25.22;42.96;96425.63;10409274;28;20707;-71
2022/07/13 18:25:04;;;;;;;2.83;1.00;;;;;;;25.13;43.40;96448.63;10408751;28;20215;-72
2022/07/13 18:30:07;;;;;;;4.72;1.48;;;;;;;25.06;43.19;96422.03;10408624;28;20291;-71
2022/07/13 18:35:08;;;;;;;8.00;2.83;;;;;;;24.92;43.87;96445.78;10408469;28;20220;-72
2022/07/13 18:40:10;;;;;;;3.03;2.70;;;;;;;24.87;44.85;96461.81;10407886;28;20193;-71
2022/07/13 18:45:11;;;;;;;9.75;7.13;;;;;;;24.95;44.19;96449.81;10390391;28;20204;-71
2022/07/13 18:50:11;;;;;;;11.68;8.00;;;;;;;24.75;44.97;96465.47;10390724;28;20200;-72
2022/07/13 18:55:11;;;;;;;11.07;8.20;;;;;;;24.65;45.34;96470.72;10389193;28;20212;-72
2022/07/13 19:00:12;;;;;;;16.90;8.38;;;;;;;24.30;46.32;96489.84;10408257;28;20195;-72
2022/07/13 19:05:12;;;;;;;8.77;6.32;;;;;;;23.93;47.27;96520.69;10407240;28;20227;-72
2022/07/13 19:10:13;;;;;;;8.07;5.30;;;;;;;23.94;47.11;96524.19;10407921;28;20203;-71
2022/07/13 19:15:13;;;;;;;5.50;4.28;;;;;;;23.53;48.64;96540.41;10407308;28;20343;-72
2022/07/13 19:20:14;;;;;;;5.32;3.90;;;;;;;23.16;50.72;96594.34;10411287;28;20235;-71
2022/07/13 19:30:33;;;;;;;6.00;2.35;;;;;;;22.91;51.04;96592.78;10407658;28;20207;-71
2022/07/13 19:35:34;;;;;;;6.38;2.10;;;;;;;23.06;51.02;96594.09;10406978;28;20221;-72
2022/07/13 19:40:34;;;;;;;2.25;1.40;;;;;;;23.00;50.93;96601.22;10407195;28;20188;-71
2022/07/13 19:45:35;;;;;;;5.45;1.60;;;;;;;22.84;51.38;96601.97;10406520;28;20692;-71
2022/07/13 19:50:35;;;;;;;3.22;1.42;;;;;;;22.69;52.06;96619.31;10407087;28;20664;-72
2022/07/13 19:55:35;;;;;;;1.77;1.40;;;;;;;22.66;51.55;96610.97;10406360;28;20307;-71
2022/07/13 20:00:37;;;;;;;3.80;1.13;;;;;;;22.78;51.92;96625.09;10407008;28;20555;-71
2022/07/13 20:05:38;;;;;;;4.18;1.25;;;;;;;22.94;50.50;96589.63;10407083;28;20294;-71
2022/07/13 20:10:38;;;;;;;3.05;1.27;;;;;;;22.82;51.25;96607.56;10414391;28;20599;-71
2022/07/13 20:15:38;;;;;;;3.78;1.27;;;;;;;22.84;50.87;96588.63;10413788;28;20672;-71
2022/07/13 20:20:39;;;;;;;3.08;1.20;;;;;;;22.80;51.06;96602.47;10413439;28;20201;-71
2022/07/13 20:25:39;;;;;;;2.80;1.20;;;;;;;22.69;52.40;96630.00;10413525;28;20188;-72
2022/07/13 20:30:40;;;;;;;4.50;1.30;;;;;;;22.57;52.65;96634.53;10413788;28;20223;-71
2022/07/13 20:35:40;;;;;;;1.10;1.00;;;;;;;22.60;52.59;96634.06;10412906;28;20212;-71
2022/07/13 20:40:41;;;;;;;1.95;1.38;;;;;;;22.32;53.62;96648.16;10412550;28;20193;-71
2022/07/13 20:45:41;;;;;;;4.65;1.50;;;;;;;22.18;54.39;96664.38;10412626;28;20716;-71
2022/07/13 20:50:42;;;;;;;1.40;1.30;;;;;;;22.28;54.41;96663.78;10412775;28;20704;-71
2022/07/13 20:55:42;;;;;;;7.28;1.33;;;;;;;22.18;54.51;96669.72;10412346;28;20625;-71
2022/07/13 21:00:42;;;;;;;2.53;1.42;;;;;;;22.08;54.75;96658.78;10412387;28;20193;-71
2022/07/13 21:05:44;;;;;;;2.80;1.30;;;;;;;22.05;55.14;96667.25;10411392;28;20290;-71
2022/07/13 21:10:45;;;;;;;3.10;1.20;;;;;;;21.70;55.97;96682.19;10411927;28;20193;-71
2022/07/13 21:15:45;;;;;;;2.00;1.30;;;;;;;21.58;57.32;96707.16;10411381;28;20220;-71
2022/07/13 21:20:45;;;;;;;2.53;1.88;;;;;;;21.49;57.18;96698.66;10410715;28;20196;-71
2022/07/13 21:25:58;;;;;;;1.40;1.30;;;;;;;21.59;55.19;96650.94;10411150;28;20279;-71
2022/07/13 21:30:59;;;;;;;6.00;1.42;;;;;;;21.59;57.02;96687.47;10411639;28;20606;-71
2022/07/13 21:36:00;;;;;;;3.10;1.60;;;;;;;21.47;57.05;96695.38;10410162;28;20227;-71
2022/07/13 21:41:00;;;;;;;2.03;1.40;;;;;;;21.58;55.18;96651.19;10410719;28;20535;-71
2022/07/13 21:46:00;;;;;;;1.90;1.45;;;;;;;21.72;54.69;96650.75;10409847;28;20200;-71
2022/07/13 21:51:01;;;;;;;2.90;1.10;;;;;;;21.83;54.14;96635.81;10410584;28;20216;-71
2022/07/13 21:56:01;;;;;;;3.42;1.40;;;;;;;21.79;54.54;96649.84;10409829;28;20220;-71
2022/07/13 22:01:02;;;;;;;3.15;1.30;;;;;;;21.52;55.65;96663.59;10409675;28;20292;-71
2022/07/13 22:06:09;;;;;;;2.90;1.42;;;;;;;21.22;56.92;96675.00;10409635;28;20232;-71
2022/07/13 22:11:46;;;;;;;4.22;1.42;;;;;;;20.83;58.83;96711.75;10409476;28;20231;-71
2022/07/13 22:17:24;;;;;;;1.88;1.42;;;;;;;20.84;58.19;96686.75;10408799;28;20227;-71
2022/07/13 22:23:02;;;;;;;2.25;1.55;;;;;;;20.41;60.23;96722.19;10409338;28;20215;-70
2022/07/13 22:28:40;;;;;;;3.10;1.75;;;;;;;20.24;61.18;96729.91;10408788;28;20206;-71
2022/07/13 22:34:17;;;;;;;6.65;1.90;;;;;;;20.35;61.99;96747.81;10408192;28;20224;-71
2022/07/13 22:39:55;;;;;;;4.38;1.70;;;;;;;19.96;64.68;96785.13;10408350;28;20196;-71
2022/07/13 22:45:33;;;;;;;6.68;1.40;;;;;;;19.98;65.19;96774.28;10407838;28;20188;-71
2022/07/13 22:51:11;;;;;;;4.00;1.52;;;;;;;20.22;63.94;96745.28;10408667;28;20196;-70
2022/07/13 22:56:48;;;;;;;2.80;1.40;;;;;;;20.06;65.93;96765.22;10407500;28;20687;-71
2022/07/13 23:02:26;;;;;;;3.00;1.48;;;;;;;20.05;67.47;96775.06;10407950;28;20280;-71
2022/07/13 23:08:04;;;;;;;7.13;1.85;;;;;;;19.79;69.56;96786.66;10408211;28;20248;-71
2022/07/13 23:13:41;;;;;;;5.05;1.77;;;;;;;19.92;69.00;96768.00;10407376;28;20227;-71
2022/07/13 23:19:19;;;;;;;2.17;1.73;;;;;;;19.72;69.33;96749.44;10407835;28;20350;-70
2022/07/13 23:24:57;;;;;;;8.55;1.70;;;;;;;19.87;68.72;96746.53;10407679;28;20197;-71
2022/07/13 23:29:57;;;;;;;2.33;1.58;;;;;;;19.77;69.56;96738.22;10406907;28;20227;-71
2022/07/13 23:34:57;;;;;;;3.80;1.50;;;;;;;20.13;67.41;96713.59;10418655;28;20246;-71
2022/07/13 23:39:58;;;;;;;2.38;1.40;;;;;;;19.93;67.94;96710.28;10429218;28;20227;-71
2022/07/13 23:44:59;;;;;;;4.65;1.30;;;;;;;20.05;66.25;96683.81;10456480;28;20193;-70
2022/07/13 23:50:01;;;;;;;2.85;1.42;;;;;;;20.10;65.54;96681.31;10439029;28;20319;-71